sensor_id;sensor_type;location;lat;lon;timestamp;P1;durP1;ratioP1;P2;durP2;ratioP2
4021;SDS011;2025;48.260;16.432;2022-09-09T00:00:18;5.40;;;1.70;;
4021;SDS011;2025;48.260;16.432;2022-09-09T00:02:50;2.22;;;1.30;;
4021;SDS011;2025;48.260;16.432;2022-09-09T00:05:31;1.23;;;1.13;;
4021;SDS011;2025;48.260;16.432;2022-09-09T00:08:08;1.13;;;1.02;;
4021;SDS011;2025;48.260;16.432;2022-09-09T00:10:45;1.20;;;1.20;;
4021;SDS011;2025;48.260;16.432;2022-09-09T00:13:21;1.45;;;1.35;;
4021;SDS011;2025;48.260;16.432;2022-09-09T00:15:55;3.33;;;1.63;;
4021;SDS011;2025;48.260;16.432;2022-09-09T00:18:27;3.30;;;1.80;;
4021;SDS011;2025;48.260;16.432;2022-09-09T00:21:01;1.70;;;1.35;;
4021;SDS011;2025;48.260;16.432;2022-09-09T00:23:33;4.32;;;1.40;;
4021;SDS011;2025;48.260;16.432;2022-09-09T00:26:04;1.63;;;1.15;;
4021;SDS011;2025;48.260;16.432;2022-09-09T00:28:37;1.30;;;1.20;;
4021;SDS011;2025;48.260;16.432;2022-09-09T00:31:11;1.17;;;1.17;;
4021;SDS011;2025;48.260;16.432;2022-09-09T00:33:40;1.23;;;1.20;;
4021;SDS011;2025;48.260;16.432;2022-09-09T00:36:12;1.67;;;1.58;;
4021;SDS011;2025;48.260;16.432;2022-09-09T00:38:42;1.38;;;1.27;;
4021;SDS011;2025;48.260;16.432;2022-09-09T00:41:16;1.77;;;1.30;;
4021;SDS011;2025;48.260;16.432;2022-09-09T00:43:49;2.75;;;1.42;;
4021;SDS011;2025;48.260;16.432;2022-09-09T00:46:45;1.80;;;1.70;;
4021;SDS011;2025;48.260;16.432;2022-09-09T00:49:25;1.40;;;1.30;;
4021;SDS011;2025;48.260;16.432;2022-09-09T00:52:10;1.58;;;1.45;;
4021;SDS011;2025;48.260;16.432;2022-09-09T00:54:51;2.63;;;1.27;;
4021;SDS011;2025;48.260;16.432;2022-09-09T00:57:28;3.90;;;1.15;;
4021;SDS011;2025;48.260;16.432;2022-09-09T00:59:57;1.55;;;1.20;;
4021;SDS011;2025;48.260;16.432;2022-09-09T01:02:32;1.58;;;1.05;;
4021;SDS011;2025;48.260;16.432;2022-09-09T01:05:06;1.73;;;1.15;;
4021;SDS011;2025;48.260;16.432;2022-09-09T01:07:41;2.65;;;1.25;;
4021;SDS011;2025;48.260;16.432;2022-09-09T01:10:15;1.45;;;1.02;;
4021;SDS011;2025;48.260;16.432;2022-09-09T01:12:52;1.30;;;1.20;;
4021;SDS011;2025;48.260;16.432;2022-09-09T01:15:26;4.03;;;1.30;;
4021;SDS011;2025;48.260;16.432;2022-09-09T01:17:58;1.30;;;1.20;;
4021;SDS011;2025;48.260;16.432;2022-09-09T01:20:29;1.42;;;1.08;;
4021;SDS011;2025;48.260;16.432;2022-09-09T01:23:19;1.20;;;1.20;;
4021;SDS011;2025;48.260;16.432;2022-09-09T01:29:00;1.23;;;1.23;;
4021;SDS011;2025;48.260;16.432;2022-09-09T01:31:27;1.05;;;1.05;;
4021;SDS011;2025;48.260;16.432;2022-09-09T01:33:56;1.00;;;1.00;;
4021;SDS011;2025;48.260;16.432;2022-09-09T01:36:26;1.80;;;1.17;;
4021;SDS011;2025;48.260;16.432;2022-09-09T01:38:58;9.45;;;1.25;;
4021;SDS011;2025;48.260;16.432;2022-09-09T01:41:25;0.90;;;0.90;;
4021;SDS011;2025;48.260;16.432;2022-09-09T01:43:53;1.00;;;1.00;;
4021;SDS011;2025;48.260;16.432;2022-09-09T01:46:22;0.98;;;0.98;;
4021;SDS011;2025;48.260;16.432;2022-09-09T01:48:50;1.95;;;1.20;;
4021;SDS011;2025;48.260;16.432;2022-09-09T01:51:19;0.90;;;0.90;;
4021;SDS011;2025;48.260;16.432;2022-09-09T01:53:46;1.23;;;1.00;;
4021;SDS011;2025;48.260;16.432;2022-09-09T01:56:17;1.88;;;1.00;;
4021;SDS011;2025;48.260;16.432;2022-09-09T01:58:56;3.33;;;0.90;;
4021;SDS011;2025;48.260;16.432;2022-09-09T02:01:35;65.13;;;1.80;;
4021;SDS011;2025;48.260;16.432;2022-09-09T02:04:16;0.75;;;0.75;;
4021;SDS011;2025;48.260;16.432;2022-09-09T02:06:53;1.00;;;1.00;;
4021;SDS011;2025;48.260;16.432;2022-09-09T02:09:23;1.08;;;1.08;;
4021;SDS011;2025;48.260;16.432;2022-09-09T02:11:53;0.85;;;0.85;;
4021;SDS011;2025;48.260;16.432;2022-09-09T02:14:27;0.93;;;0.90;;
4021;SDS011;2025;48.260;16.432;2022-09-09T02:17:01;1.10;;;1.10;;
4021;SDS011;2025;48.260;16.432;2022-09-09T02:19:35;3.53;;;1.80;;
4021;SDS011;2025;48.260;16.432;2022-09-09T02:22:05;1.30;;;1.30;;
4021;SDS011;2025;48.260;16.432;2022-09-09T02:24:36;1.67;;;1.20;;
4021;SDS011;2025;48.260;16.432;2022-09-09T02:27:06;1.42;;;1.38;;
4021;SDS011;2025;48.260;16.432;2022-09-09T02:29:36;1.40;;;1.30;;
4021;SDS011;2025;48.260;16.432;2022-09-09T02:32:08;1.80;;;1.70;;
4021;SDS011;2025;48.260;16.432;2022-09-09T02:34:40;1.75;;;1.23;;
4021;SDS011;2025;48.260;16.432;2022-09-09T02:37:11;3.85;;;1.42;;
4021;SDS011;2025;48.260;16.432;2022-09-09T02:39:41;4.22;;;1.20;;
4021;SDS011;2025;48.260;16.432;2022-09-09T02:42:09;0.90;;;0.90;;
4021;SDS011;2025;48.260;16.432;2022-09-09T02:44:36;1.15;;;1.15;;
4021;SDS011;2025;48.260;16.432;2022-09-09T02:50:06;1.65;;;1.50;;
4021;SDS011;2025;48.260;16.432;2022-09-09T02:52:41;3.72;;;1.80;;
4021;SDS011;2025;48.260;16.432;2022-09-09T02:55:16;3.10;;;1.50;;
4021;SDS011;2025;48.260;16.432;2022-09-09T02:57:47;1.85;;;1.80;;
4021;SDS011;2025;48.260;16.432;2022-09-09T03:00:16;3.40;;;2.13;;
4021;SDS011;2025;48.260;16.432;2022-09-09T03:02:51;1.75;;;1.65;;
4021;SDS011;2025;48.260;16.432;2022-09-09T03:05:19;4.50;;;1.75;;
4021;SDS011;2025;48.260;16.432;2022-09-09T03:07:46;2.20;;;1.98;;
4021;SDS011;2025;48.260;16.432;2022-09-09T03:10:14;2.33;;;2.20;;
4021;SDS011;2025;48.260;16.432;2022-09-09T03:12:42;4.60;;;2.53;;
4021;SDS011;2025;48.260;16.432;2022-09-09T03:15:09;3.58;;;3.13;;
4021;SDS011;2025;48.260;16.432;2022-09-09T03:17:36;2.88;;;2.67;;
4021;SDS011;2025;48.260;16.432;2022-09-09T03:20:05;2.20;;;2.10;;
4021;SDS011;2025;48.260;16.432;2022-09-09T03:22:32;3.65;;;2.50;;
4021;SDS011;2025;48.260;16.432;2022-09-09T03:24:59;5.38;;;2.53;;
4021;SDS011;2025;48.260;16.432;2022-09-09T03:27:27;2.80;;;2.60;;
4021;SDS011;2025;48.260;16.432;2022-09-09T03:29:53;11.10;;;2.58;;
4021;SDS011;2025;48.260;16.432;2022-09-09T03:32:21;2.88;;;2.67;;
4021;SDS011;2025;48.260;16.432;2022-09-09T03:34:49;2.55;;;2.40;;
4021;SDS011;2025;48.260;16.432;2022-09-09T03:37:17;3.42;;;2.75;;
4021;SDS011;2025;48.260;16.432;2022-09-09T03:39:45;6.90;;;2.40;;
4021;SDS011;2025;48.260;16.432;2022-09-09T03:42:12;1.92;;;1.88;;
4021;SDS011;2025;48.260;16.432;2022-09-09T03:44:43;2.40;;;2.28;;
4021;SDS011;2025;48.260;16.432;2022-09-09T03:47:12;7.00;;;2.70;;
4021;SDS011;2025;48.260;16.432;2022-09-09T03:49:39;4.50;;;2.08;;
4021;SDS011;2025;48.260;16.432;2022-09-09T03:52:06;2.20;;;1.98;;
4021;SDS011;2025;48.260;16.432;2022-09-09T03:54:36;6.63;;;1.98;;
4021;SDS011;2025;48.260;16.432;2022-09-09T03:57:03;2.83;;;2.22;;
4021;SDS011;2025;48.260;16.432;2022-09-09T03:59:30;2.40;;;2.17;;
4021;SDS011;2025;48.260;16.432;2022-09-09T04:01:58;2.63;;;2.30;;
4021;SDS011;2025;48.260;16.432;2022-09-09T04:04:25;2.70;;;2.10;;
4021;SDS011;2025;48.260;16.432;2022-09-09T04:06:52;11.75;;;2.50;;
4021;SDS011;2025;48.260;16.432;2022-09-09T04:09:19;5.35;;;2.83;;
4021;SDS011;2025;48.260;16.432;2022-09-09T04:11:48;4.20;;;1.88;;
4021;SDS011;2025;48.260;16.432;2022-09-09T04:14:15;2.70;;;1.85;;
4021;SDS011;2025;48.260;16.432;2022-09-09T04:16:42;2.85;;;2.65;;
4021;SDS011;2025;48.260;16.432;2022-09-09T04:19:09;8.30;;;3.30;;
4021;SDS011;2025;48.260;16.432;2022-09-09T04:21:37;2.60;;;2.50;;
4021;SDS011;2025;48.260;16.432;2022-09-09T04:24:07;2.28;;;2.17;;
4021;SDS011;2025;48.260;16.432;2022-09-09T04:26:35;2.60;;;2.38;;
4021;SDS011;2025;48.260;16.432;2022-09-09T04:29:04;3.72;;;2.67;;
4021;SDS011;2025;48.260;16.432;2022-09-09T04:31:32;3.00;;;2.80;;
4021;SDS011;2025;48.260;16.432;2022-09-09T04:33:59;2.45;;;2.35;;
4021;SDS011;2025;48.260;16.432;2022-09-09T04:36:30;3.30;;;2.65;;
4021;SDS011;2025;48.260;16.432;2022-09-09T04:38:58;2.60;;;2.35;;
4021;SDS011;2025;48.260;16.432;2022-09-09T04:41:25;5.57;;;2.80;;
4021;SDS011;2025;48.260;16.432;2022-09-09T04:43:52;14.80;;;2.22;;
4021;SDS011;2025;48.260;16.432;2022-09-09T04:46:21;6.95;;;2.40;;
4021;SDS011;2025;48.260;16.432;2022-09-09T04:48:49;3.05;;;2.85;;
4021;SDS011;2025;48.260;16.432;2022-09-09T04:51:17;3.90;;;3.15;;
4021;SDS011;2025;48.260;16.432;2022-09-09T04:53:44;3.97;;;3.63;;
4021;SDS011;2025;48.260;16.432;2022-09-09T04:56:12;5.10;;;3.00;;
4021;SDS011;2025;48.260;16.432;2022-09-09T04:58:41;85.47;;;3.60;;
4021;SDS011;2025;48.260;16.432;2022-09-09T05:01:08;2.95;;;2.85;;
4021;SDS011;2025;48.260;16.432;2022-09-09T05:03:37;3.42;;;2.80;;
4021;SDS011;2025;48.260;16.432;2022-09-09T05:06:05;6.18;;;3.45;;
4021;SDS011;2025;48.260;16.432;2022-09-09T05:08:34;7.65;;;3.10;;
4021;SDS011;2025;48.260;16.432;2022-09-09T05:11:02;8.15;;;4.13;;
4021;SDS011;2025;48.260;16.432;2022-09-09T05:13:29;5.30;;;4.88;;
4021;SDS011;2025;48.260;16.432;2022-09-09T05:15:57;11.75;;;4.60;;
4021;SDS011;2025;48.260;16.432;2022-09-09T05:18:24;3.90;;;3.70;;
4021;SDS011;2025;48.260;16.432;2022-09-09T05:20:52;4.15;;;3.85;;
4021;SDS011;2025;48.260;16.432;2022-09-09T05:23:24;4.47;;;4.13;;
4021;SDS011;2025;48.260;16.432;2022-09-09T05:25:55;5.03;;;4.63;;
4021;SDS011;2025;48.260;16.432;2022-09-09T05:28:23;8.60;;;4.97;;
4021;SDS011;2025;48.260;16.432;2022-09-09T05:30:57;5.07;;;4.38;;
4021;SDS011;2025;48.260;16.432;2022-09-09T05:33:25;5.55;;;4.15;;
4021;SDS011;2025;48.260;16.432;2022-09-09T05:35:58;4.15;;;3.95;;
4021;SDS011;2025;48.260;16.432;2022-09-09T05:38:26;4.68;;;4.47;;
4021;SDS011;2025;48.260;16.432;2022-09-09T05:40:54;5.57;;;5.18;;
4021;SDS011;2025;48.260;16.432;2022-09-09T05:43:21;7.80;;;5.72;;
4021;SDS011;2025;48.260;16.432;2022-09-09T05:45:58;6.82;;;6.13;;
4021;SDS011;2025;48.260;16.432;2022-09-09T05:48:27;9.55;;;6.57;;
4021;SDS011;2025;48.260;16.432;2022-09-09T05:50:55;7.80;;;6.80;;
4021;SDS011;2025;48.260;16.432;2022-09-09T05:53:23;12.27;;;6.63;;
4021;SDS011;2025;48.260;16.432;2022-09-09T05:55:50;7.53;;;6.90;;
4021;SDS011;2025;48.260;16.432;2022-09-09T05:58:23;9.32;;;5.90;;
4021;SDS011;2025;48.260;16.432;2022-09-09T06:00:50;11.10;;;5.88;;
4021;SDS011;2025;48.260;16.432;2022-09-09T06:03:17;8.98;;;6.60;;
4021;SDS011;2025;48.260;16.432;2022-09-09T06:05:56;13.77;;;5.95;;
4021;SDS011;2025;48.260;16.432;2022-09-09T06:08:25;5.97;;;5.03;;
4021;SDS011;2025;48.260;16.432;2022-09-09T06:10:52;5.53;;;5.03;;
4021;SDS011;2025;48.260;16.432;2022-09-09T06:13:19;5.25;;;4.82;;
4021;SDS011;2025;48.260;16.432;2022-09-09T06:15:49;5.65;;;5.15;;
4021;SDS011;2025;48.260;16.432;2022-09-09T06:18:17;6.55;;;4.82;;
4021;SDS011;2025;48.260;16.432;2022-09-09T06:20:53;6.68;;;4.55;;
4021;SDS011;2025;48.260;16.432;2022-09-09T06:23:20;5.15;;;4.53;;
4021;SDS011;2025;48.260;16.432;2022-09-09T06:25:49;6.13;;;5.55;;
4021;SDS011;2025;48.260;16.432;2022-09-09T06:28:16;5.63;;;5.28;;
4021;SDS011;2025;48.260;16.432;2022-09-09T06:30:44;5.68;;;5.15;;
4021;SDS011;2025;48.260;16.432;2022-09-09T06:33:12;5.13;;;4.80;;
4021;SDS011;2025;48.260;16.432;2022-09-09T06:35:39;4.32;;;4.05;;
4021;SDS011;2025;48.260;16.432;2022-09-09T06:38:06;5.50;;;5.10;;
4021;SDS011;2025;48.260;16.432;2022-09-09T06:40:33;7.85;;;4.57;;
4021;SDS011;2025;48.260;16.432;2022-09-09T06:43:02;4.68;;;4.38;;
4021;SDS011;2025;48.260;16.432;2022-09-09T06:45:29;4.65;;;4.40;;
4021;SDS011;2025;48.260;16.432;2022-09-09T06:47:56;6.45;;;4.38;;
4021;SDS011;2025;48.260;16.432;2022-09-09T06:50:23;8.02;;;3.65;;
4021;SDS011;2025;48.260;16.432;2022-09-09T06:52:50;5.80;;;3.58;;
4021;SDS011;2025;48.260;16.432;2022-09-09T06:55:21;4.97;;;3.50;;
4021;SDS011;2025;48.260;16.432;2022-09-09T06:57:58;6.10;;;3.15;;
4021;SDS011;2025;48.260;16.432;2022-09-09T07:00:39;4.22;;;3.88;;
4021;SDS011;2025;48.260;16.432;2022-09-09T07:03:11;7.03;;;3.35;;
4021;SDS011;2025;48.260;16.432;2022-09-09T07:05:41;4.93;;;3.40;;
4021;SDS011;2025;48.260;16.432;2022-09-09T07:08:10;5.25;;;3.10;;
4021;SDS011;2025;48.260;16.432;2022-09-09T07:11:01;5.78;;;2.97;;
4021;SDS011;2025;48.260;16.432;2022-09-09T07:13:40;3.22;;;3.03;;
4021;SDS011;2025;48.260;16.432;2022-09-09T07:16:13;2.70;;;2.60;;
4021;SDS011;2025;48.260;16.432;2022-09-09T07:18:42;4.53;;;2.78;;
4021;SDS011;2025;48.260;16.432;2022-09-09T07:21:13;3.25;;;2.15;;
4021;SDS011;2025;48.260;16.432;2022-09-09T07:23:44;4.10;;;2.63;;
4021;SDS011;2025;48.260;16.432;2022-09-09T07:26:13;4.43;;;2.20;;
4021;SDS011;2025;48.260;16.432;2022-09-09T07:28:53;7.13;;;1.90;;
4021;SDS011;2025;48.260;16.432;2022-09-09T07:31:27;2.63;;;1.92;;
4021;SDS011;2025;48.260;16.432;2022-09-09T07:34:14;2.95;;;1.90;;
4021;SDS011;2025;48.260;16.432;2022-09-09T07:36:48;6.43;;;1.92;;
4021;SDS011;2025;48.260;16.432;2022-09-09T07:39:19;7.65;;;2.40;;
4021;SDS011;2025;48.260;16.432;2022-09-09T07:41:47;5.13;;;2.90;;
4021;SDS011;2025;48.260;16.432;2022-09-09T07:44:16;7.03;;;2.78;;
4021;SDS011;2025;48.260;16.432;2022-09-09T07:46:53;2.58;;;2.40;;
4021;SDS011;2025;48.260;16.432;2022-09-09T07:49:20;9.18;;;2.42;;
4021;SDS011;2025;48.260;16.432;2022-09-09T07:51:47;8.35;;;3.05;;
4021;SDS011;2025;48.260;16.432;2022-09-09T07:54:16;3.58;;;2.65;;
4021;SDS011;2025;48.260;16.432;2022-09-09T07:56:46;6.45;;;2.78;;
4021;SDS011;2025;48.260;16.432;2022-09-09T07:59:14;8.02;;;3.60;;
4021;SDS011;2025;48.260;16.432;2022-09-09T08:01:42;10.68;;;3.45;;
4021;SDS011;2025;48.260;16.432;2022-09-09T08:04:12;9.60;;;3.15;;
4021;SDS011;2025;48.260;16.432;2022-09-09T08:06:42;6.30;;;3.03;;
4021;SDS011;2025;48.260;16.432;2022-09-09T08:09:12;10.32;;;2.67;;
4021;SDS011;2025;48.260;16.432;2022-09-09T08:11:40;9.45;;;2.45;;
4021;SDS011;2025;48.260;16.432;2022-09-09T08:14:07;11.25;;;2.83;;
4021;SDS011;2025;48.260;16.432;2022-09-09T08:16:36;11.38;;;3.28;;
4021;SDS011;2025;48.260;16.432;2022-09-09T08:19:05;9.30;;;2.55;;
4021;SDS011;2025;48.260;16.432;2022-09-09T08:21:35;5.80;;;2.38;;
4021;SDS011;2025;48.260;16.432;2022-09-09T08:24:03;5.47;;;2.50;;
4021;SDS011;2025;48.260;16.432;2022-09-09T08:26:33;18.90;;;3.38;;
4021;SDS011;2025;48.260;16.432;2022-09-09T08:29:01;6.78;;;2.35;;
4021;SDS011;2025;48.260;16.432;2022-09-09T08:31:31;2.90;;;1.95;;
4021;SDS011;2025;48.260;16.432;2022-09-09T08:33:59;2.80;;;2.20;;
4021;SDS011;2025;48.260;16.432;2022-09-09T08:36:27;4.53;;;2.28;;
4021;SDS011;2025;48.260;16.432;2022-09-09T08:38:57;5.55;;;2.67;;
4021;SDS011;2025;48.260;16.432;2022-09-09T08:41:31;3.72;;;2.10;;
4021;SDS011;2025;48.260;16.432;2022-09-09T08:46:51;4.72;;;1.75;;
4021;SDS011;2025;48.260;16.432;2022-09-09T08:49:34;9.82;;;2.25;;
4021;SDS011;2025;48.260;16.432;2022-09-09T08:52:15;10.18;;;2.10;;
4021;SDS011;2025;48.260;16.432;2022-09-09T08:54:47;3.75;;;1.92;;
4021;SDS011;2025;48.260;16.432;2022-09-09T08:57:16;2.80;;;1.80;;
4021;SDS011;2025;48.260;16.432;2022-09-09T08:59:46;2.80;;;1.50;;
4021;SDS011;2025;48.260;16.432;2022-09-09T09:02:17;6.35;;;1.55;;
4021;SDS011;2025;48.260;16.432;2022-09-09T09:04:58;3.95;;;1.35;;
4021;SDS011;2025;48.260;16.432;2022-09-09T09:07:39;3.92;;;1.50;;
4021;SDS011;2025;48.260;16.432;2022-09-09T09:10:24;9.82;;;1.63;;
4021;SDS011;2025;48.260;16.432;2022-09-09T09:13:04;5.97;;;1.40;;
4021;SDS011;2025;48.260;16.432;2022-09-09T09:15:39;6.80;;;1.13;;
4021;SDS011;2025;48.260;16.432;2022-09-09T09:18:08;2.97;;;1.20;;
4021;SDS011;2025;48.260;16.432;2022-09-09T09:20:40;3.15;;;1.10;;
4021;SDS011;2025;48.260;16.432;2022-09-09T09:23:19;4.20;;;0.98;;
4021;SDS011;2025;48.260;16.432;2022-09-09T09:25:50;1.58;;;0.70;;
4021;SDS011;2025;48.260;16.432;2022-09-09T09:28:44;2.22;;;0.93;;
4021;SDS011;2025;48.260;16.432;2022-09-09T09:31:12;1.85;;;0.60;;
4021;SDS011;2025;48.260;16.432;2022-09-09T09:33:43;2.47;;;0.80;;
4021;SDS011;2025;48.260;16.432;2022-09-09T09:36:15;4.03;;;1.02;;
4021;SDS011;2025;48.260;16.432;2022-09-09T09:38:51;1.80;;;0.90;;
4021;SDS011;2025;48.260;16.432;2022-09-09T09:41:31;6.65;;;1.00;;
4021;SDS011;2025;48.260;16.432;2022-09-09T09:44:00;1.58;;;0.93;;
4021;SDS011;2025;48.260;16.432;2022-09-09T09:46:30;9.13;;;1.00;;
4021;SDS011;2025;48.260;16.432;2022-09-09T09:48:58;3.53;;;1.10;;
4021;SDS011;2025;48.260;16.432;2022-09-09T09:51:26;1.83;;;0.90;;
4021;SDS011;2025;48.260;16.432;2022-09-09T09:54:02;4.55;;;0.70;;
4021;SDS011;2025;48.260;16.432;2022-09-09T09:56:37;2.13;;;0.55;;
4021;SDS011;2025;48.260;16.432;2022-09-09T09:59:04;1.73;;;0.88;;
4021;SDS011;2025;48.260;16.432;2022-09-09T10:01:32;0.85;;;0.52;;
4021;SDS011;2025;48.260;16.432;2022-09-09T10:04:01;2.75;;;0.60;;
4021;SDS011;2025;48.260;16.432;2022-09-09T10:06:30;3.10;;;0.80;;
4021;SDS011;2025;48.260;16.432;2022-09-09T10:08:58;0.75;;;0.63;;
4021;SDS011;2025;48.260;16.432;2022-09-09T10:11:30;0.77;;;0.50;;
4021;SDS011;2025;48.260;16.432;2022-09-09T10:14:11;1.70;;;0.60;;
4021;SDS011;2025;48.260;16.432;2022-09-09T10:16:47;2.22;;;0.60;;
4021;SDS011;2025;48.260;16.432;2022-09-09T10:19:29;2.13;;;0.80;;
4021;SDS011;2025;48.260;16.432;2022-09-09T10:22:01;0.70;;;0.70;;
4021;SDS011;2025;48.260;16.432;2022-09-09T10:24:39;0.60;;;0.40;;
4021;SDS011;2025;48.260;16.432;2022-09-09T10:27:35;1.60;;;0.82;;
4021;SDS011;2025;48.260;16.432;2022-09-09T10:30:12;2.08;;;0.70;;
4021;SDS011;2025;48.260;16.432;2022-09-09T10:32:46;4.88;;;0.70;;
4021;SDS011;2025;48.260;16.432;2022-09-09T10:35:25;1.35;;;0.50;;
4021;SDS011;2025;48.260;16.432;2022-09-09T10:41:00;0.50;;;0.50;;
4021;SDS011;2025;48.260;16.432;2022-09-09T10:43:42;0.63;;;0.40;;
4021;SDS011;2025;48.260;16.432;2022-09-09T10:46:23;1.60;;;0.60;;
4021;SDS011;2025;48.260;16.432;2022-09-09T10:49:03;3.40;;;0.77;;
4021;SDS011;2025;48.260;16.432;2022-09-09T10:51:42;1.33;;;0.47;;
4021;SDS011;2025;48.260;16.432;2022-09-09T10:54:23;1.42;;;0.70;;
4021;SDS011;2025;48.260;16.432;2022-09-09T10:56:58;1.95;;;0.70;;
4021;SDS011;2025;48.260;16.432;2022-09-09T10:59:33;0.60;;;0.60;;
4021;SDS011;2025;48.260;16.432;2022-09-09T11:02:06;2.92;;;0.50;;
4021;SDS011;2025;48.260;16.432;2022-09-09T11:04:45;4.00;;;0.60;;
4021;SDS011;2025;48.260;16.432;2022-09-09T11:07:21;1.00;;;0.70;;
4021;SDS011;2025;48.260;16.432;2022-09-09T11:09:54;1.38;;;0.50;;
4021;SDS011;2025;48.260;16.432;2022-09-09T11:12:27;2.05;;;0.40;;
4021;SDS011;2025;48.260;16.432;2022-09-09T11:15:01;0.65;;;0.50;;
4021;SDS011;2025;48.260;16.432;2022-09-09T11:17:34;0.50;;;0.50;;
4021;SDS011;2025;48.260;16.432;2022-09-09T11:20:12;0.60;;;0.60;;
4021;SDS011;2025;48.260;16.432;2022-09-09T11:22:42;3.03;;;0.70;;
4021;SDS011;2025;48.260;16.432;2022-09-09T11:25:15;0.75;;;0.50;;
4021;SDS011;2025;48.260;16.432;2022-09-09T11:27:50;2.58;;;0.60;;
4021;SDS011;2025;48.260;16.432;2022-09-09T11:30:31;1.00;;;0.60;;
4021;SDS011;2025;48.260;16.432;2022-09-09T11:33:13;2.65;;;0.65;;
4021;SDS011;2025;48.260;16.432;2022-09-09T11:36:02;0.70;;;0.70;;
4021;SDS011;2025;48.260;16.432;2022-09-09T11:38:47;3.47;;;1.30;;
4021;SDS011;2025;48.260;16.432;2022-09-09T11:41:17;1.88;;;0.75;;
4021;SDS011;2025;48.260;16.432;2022-09-09T11:43:47;1.25;;;0.70;;
4021;SDS011;2025;48.260;16.432;2022-09-09T11:46:18;1.02;;;0.73;;
4021;SDS011;2025;48.260;16.432;2022-09-09T11:48:58;0.70;;;0.70;;
4021;SDS011;2025;48.260;16.432;2022-09-09T11:51:27;2.05;;;0.60;;
4021;SDS011;2025;48.260;16.432;2022-09-09T11:53:56;1.33;;;0.75;;
4021;SDS011;2025;48.260;16.432;2022-09-09T11:56:27;1.70;;;0.85;;
4021;SDS011;2025;48.260;16.432;2022-09-09T11:58:57;0.50;;;0.50;;
4021;SDS011;2025;48.260;16.432;2022-09-09T12:01:30;0.70;;;0.70;;
4021;SDS011;2025;48.260;16.432;2022-09-09T12:06:59;0.80;;;0.60;;
4021;SDS011;2025;48.260;16.432;2022-09-09T12:09:31;0.73;;;0.60;;
4021;SDS011;2025;48.260;16.432;2022-09-09T12:12:21;2.85;;;0.70;;
4021;SDS011;2025;48.260;16.432;2022-09-09T12:15:00;5.72;;;0.68;;
4021;SDS011;2025;48.260;16.432;2022-09-09T12:17:48;4.18;;;0.70;;
4021;SDS011;2025;48.260;16.432;2022-09-09T12:20:17;0.80;;;0.70;;
4021;SDS011;2025;48.260;16.432;2022-09-09T12:22:59;0.70;;;0.70;;
4021;SDS011;2025;48.260;16.432;2022-09-09T12:25:43;2.75;;;0.50;;
4021;SDS011;2025;48.260;16.432;2022-09-09T12:28:39;0.73;;;0.60;;
4021;SDS011;2025;48.260;16.432;2022-09-09T12:31:13;1.88;;;0.60;;
4021;SDS011;2025;48.260;16.432;2022-09-09T12:33:46;1.35;;;0.80;;
4021;SDS011;2025;48.260;16.432;2022-09-09T12:36:14;1.13;;;0.57;;
4021;SDS011;2025;48.260;16.432;2022-09-09T12:38:44;1.65;;;0.60;;
4021;SDS011;2025;48.260;16.432;2022-09-09T12:41:18;1.40;;;0.80;;
4021;SDS011;2025;48.260;16.432;2022-09-09T12:43:47;0.70;;;0.70;;
4021;SDS011;2025;48.260;16.432;2022-09-09T12:46:17;0.65;;;0.65;;
4021;SDS011;2025;48.260;16.432;2022-09-09T12:48:53;1.88;;;0.60;;
4021;SDS011;2025;48.260;16.432;2022-09-09T12:51:22;1.33;;;0.50;;
4021;SDS011;2025;48.260;16.432;2022-09-09T12:53:52;2.80;;;0.70;;
4021;SDS011;2025;48.260;16.432;2022-09-09T12:56:20;0.70;;;0.70;;
4021;SDS011;2025;48.260;16.432;2022-09-09T12:58:50;0.60;;;0.60;;
4021;SDS011;2025;48.260;16.432;2022-09-09T13:01:20;1.88;;;0.57;;
4021;SDS011;2025;48.260;16.432;2022-09-09T13:03:49;0.60;;;0.60;;
4021;SDS011;2025;48.260;16.432;2022-09-09T13:06:20;1.27;;;0.55;;
4021;SDS011;2025;48.260;16.432;2022-09-09T13:08:49;1.80;;;0.73;;
4021;SDS011;2025;48.260;16.432;2022-09-09T13:11:17;0.63;;;0.60;;
4021;SDS011;2025;48.260;16.432;2022-09-09T13:13:51;2.38;;;0.70;;
4021;SDS011;2025;48.260;16.432;2022-09-09T13:16:21;1.27;;;0.60;;
4021;SDS011;2025;48.260;16.432;2022-09-09T13:18:52;3.47;;;0.70;;
4021;SDS011;2025;48.260;16.432;2022-09-09T13:21:31;0.80;;;0.70;;
4021;SDS011;2025;48.260;16.432;2022-09-09T13:24:00;1.05;;;0.82;;
4021;SDS011;2025;48.260;16.432;2022-09-09T13:26:29;1.85;;;0.88;;
4021;SDS011;2025;48.260;16.432;2022-09-09T13:29:07;3.05;;;0.70;;
4021;SDS011;2025;48.260;16.432;2022-09-09T13:31:43;1.25;;;0.80;;
4021;SDS011;2025;48.260;16.432;2022-09-09T13:34:11;0.82;;;0.70;;
4021;SDS011;2025;48.260;16.432;2022-09-09T13:36:41;3.60;;;0.60;;
4021;SDS011;2025;48.260;16.432;2022-09-09T13:39:13;1.13;;;0.70;;
4021;SDS011;2025;48.260;16.432;2022-09-09T13:41:43;2.78;;;0.65;;
4021;SDS011;2025;48.260;16.432;2022-09-09T13:44:14;6.07;;;1.20;;
4021;SDS011;2025;48.260;16.432;2022-09-09T13:46:58;2.45;;;0.80;;
4021;SDS011;2025;48.260;16.432;2022-09-09T13:49:28;0.90;;;0.60;;
4021;SDS011;2025;48.260;16.432;2022-09-09T13:52:04;0.60;;;0.60;;
4021;SDS011;2025;48.260;16.432;2022-09-09T13:54:35;0.98;;;0.60;;
4021;SDS011;2025;48.260;16.432;2022-09-09T13:57:05;2.88;;;0.52;;
4021;SDS011;2025;48.260;16.432;2022-09-09T13:59:40;3.90;;;0.70;;
4021;SDS011;2025;48.260;16.432;2022-09-09T14:02:07;0.75;;;0.60;;
4021;SDS011;2025;48.260;16.432;2022-09-09T14:04:34;1.02;;;0.60;;
4021;SDS011;2025;48.260;16.432;2022-09-09T14:07:02;2.55;;;0.65;;
4021;SDS011;2025;48.260;16.432;2022-09-09T14:09:30;2.75;;;0.50;;
4021;SDS011;2025;48.260;16.432;2022-09-09T14:11:57;1.40;;;0.70;;
4021;SDS011;2025;48.260;16.432;2022-09-09T14:14:25;2.80;;;0.68;;
4021;SDS011;2025;48.260;16.432;2022-09-09T14:16:53;0.82;;;0.70;;
4021;SDS011;2025;48.260;16.432;2022-09-09T14:19:20;0.85;;;0.50;;
4021;SDS011;2025;48.260;16.432;2022-09-09T14:21:47;2.83;;;0.57;;
4021;SDS011;2025;48.260;16.432;2022-09-09T14:24:17;1.58;;;0.70;;
4021;SDS011;2025;48.260;16.432;2022-09-09T14:26:44;0.70;;;0.60;;
4021;SDS011;2025;48.260;16.432;2022-09-09T14:29:11;2.25;;;0.70;;
4021;SDS011;2025;48.260;16.432;2022-09-09T14:31:38;2.15;;;0.70;;
4021;SDS011;2025;48.260;16.432;2022-09-09T14:34:05;1.30;;;0.63;;
4021;SDS011;2025;48.260;16.432;2022-09-09T14:36:32;0.60;;;0.60;;
4021;SDS011;2025;48.260;16.432;2022-09-09T14:38:59;3.17;;;0.80;;
4021;SDS011;2025;48.260;16.432;2022-09-09T14:41:28;3.78;;;1.00;;
4021;SDS011;2025;48.260;16.432;2022-09-09T14:43:55;1.00;;;1.00;;
4021;SDS011;2025;48.260;16.432;2022-09-09T14:46:22;2.38;;;0.65;;
4021;SDS011;2025;48.260;16.432;2022-09-09T14:48:49;1.13;;;1.02;;
4021;SDS011;2025;48.260;16.432;2022-09-09T14:51:16;2.08;;;1.00;;
4021;SDS011;2025;48.260;16.432;2022-09-09T14:53:47;2.60;;;1.05;;
4021;SDS011;2025;48.260;16.432;2022-09-09T14:56:18;2.55;;;1.02;;
4021;SDS011;2025;48.260;16.432;2022-09-09T14:58:49;3.08;;;1.10;;
4021;SDS011;2025;48.260;16.432;2022-09-09T15:01:18;1.30;;;1.10;;
4021;SDS011;2025;48.260;16.432;2022-09-09T15:03:48;0.90;;;0.90;;
4021;SDS011;2025;48.260;16.432;2022-09-09T15:08:44;4.45;;;1.10;;
4021;SDS011;2025;48.260;16.432;2022-09-09T15:11:12;2.58;;;1.05;;
4021;SDS011;2025;48.260;16.432;2022-09-09T15:13:41;2.67;;;1.25;;
4021;SDS011;2025;48.260;16.432;2022-09-09T15:16:10;1.98;;;1.00;;
4021;SDS011;2025;48.260;16.432;2022-09-09T15:18:39;1.43;;;0.90;;
4021;SDS011;2025;48.260;16.432;2022-09-09T15:21:08;0.80;;;0.80;;
4021;SDS011;2025;48.260;16.432;2022-09-09T15:23:36;2.08;;;1.00;;
4021;SDS011;2025;48.260;16.432;2022-09-09T15:26:04;3.33;;;1.15;;
4021;SDS011;2025;48.260;16.432;2022-09-09T15:28:31;0.90;;;0.90;;
4021;SDS011;2025;48.260;16.432;2022-09-09T15:33:33;1.48;;;1.05;;
4021;SDS011;2025;48.260;16.432;2022-09-09T15:36:12;1.02;;;1.00;;
4021;SDS011;2025;48.260;16.432;2022-09-09T15:38:40;1.17;;;0.80;;
4021;SDS011;2025;48.260;16.432;2022-09-09T15:41:07;1.80;;;1.10;;
4021;SDS011;2025;48.260;16.432;2022-09-09T15:43:34;1.73;;;1.10;;
4021;SDS011;2025;48.260;16.432;2022-09-09T15:46:05;1.00;;;0.93;;